Terminal Aerodrome Forecast
Issued by NWS

Home | Current Version | Previous Version | Text Only | Print | Product List | Glossary On
Versions: 1 2 3 4 5 6 7 8 9 10 11 12 13 14 15 16
000
FTAK31 PAJN 191726
TAFAJN
TAF
PAJN 191726Z 1918/2018 00000KT P6SM SKC
     FM192000 23006KT P6SM SKC
     FM200200 VRB03KT P6SM SKC
     FM200600 00000KT P6SM SKC=

USA.gov is the U.S. government's official web portal to all federal, state and local government web resources and services.